createdAt,value
2019-01-31T00:01:37.872Z,-3.65
2019-01-31T00:05:00.185Z,-3.78
2019-01-31T00:08:21.719Z,-3.88
2019-01-31T00:11:31.663Z,-4.01
2019-01-31T00:14:42.305Z,-4.04
2019-01-31T00:17:57.243Z,-4.14
2019-01-31T00:21:26.153Z,-4.17
2019-01-31T00:25:01.537Z,-4.30
2019-01-31T00:28:29.692Z,-4.40
2019-01-31T00:31:55.297Z,-4.41
2019-01-31T00:34:53.929Z,-4.34
2019-01-31T00:38:30.895Z,-4.37
2019-01-31T00:41:53.339Z,-4.41
2019-01-31T00:45:04.555Z,-4.51
2019-01-31T00:48:36.917Z,-4.64
2019-01-31T00:51:50.877Z,-4.76
2019-01-31T00:55:29.822Z,-4.73
2019-01-31T00:58:39.455Z,-4.79
2019-01-31T01:01:46.919Z,-4.86
2019-01-31T01:05:07.235Z,-4.89
2019-01-31T01:08:18.342Z,-4.95
2019-01-31T01:11:27.922Z,-5.01
2019-01-31T01:14:43.694Z,-5.07
2019-01-31T01:17:51.451Z,-5.08
2019-01-31T01:21:03.349Z,-5.13
2019-01-31T01:24:24.418Z,-5.15
2019-01-31T01:27:18.872Z,-5.18
2019-01-31T01:30:28.117Z,-5.22
2019-01-31T01:37:15.450Z,-5.24
2019-01-31T01:40:51.763Z,-5.34
2019-01-31T01:44:03.269Z,-5.34
2019-01-31T01:46:57.704Z,-5.36
2019-01-31T01:49:47.049Z,-5.37
2019-01-31T01:53:14.354Z,-5.44
2019-01-31T01:56:43.176Z,-5.47
2019-01-31T02:00:03.032Z,-5.49
2019-01-31T02:03:39.373Z,-5.55
2019-01-31T02:07:04.296Z,-5.55
2019-01-31T02:10:47.968Z,-5.51
2019-01-31T02:14:21.582Z,-5.51
2019-01-31T02:17:17.804Z,-5.54
2019-01-31T02:20:51.626Z,-5.57
2019-01-31T02:24:08.804Z,-5.60
2019-01-31T02:27:43.125Z,-5.66
2019-01-31T02:30:38.461Z,-5.70
2019-01-31T02:33:41.504Z,-5.68
2019-01-31T02:36:56.197Z,-5.69
2019-01-31T02:40:13.041Z,-5.67
2019-01-31T02:44:12.102Z,-5.58
2019-01-31T02:47:52.185Z,-5.61
2019-01-31T02:51:40.736Z,-5.72
2019-01-31T02:54:37.781Z,-5.68
2019-01-31T02:58:00.194Z,-5.91
2019-01-31T03:01:18.550Z,-6.06
2019-01-31T03:04:30.565Z,-6.08
2019-01-31T03:07:58.399Z,-6.06
2019-01-31T03:11:24.535Z,-6.11
2019-01-31T03:14:25.975Z,-6.18
2019-01-31T03:17:52.752Z,-6.21
2019-01-31T03:21:26.837Z,-6.25
2019-01-31T03:24:26.447Z,-6.28
2019-01-31T03:27:51.368Z,-6.27
2019-01-31T03:31:13.850Z,-6.26
2019-01-31T03:34:21.429Z,-6.31
2019-01-31T03:37:40.910Z,-6.32
2019-01-31T03:40:51.674Z,-6.34
2019-01-31T03:43:55.332Z,-6.32
2019-01-31T03:47:24.179Z,-6.36
2019-01-31T03:50:22.120Z,-6.35
2019-01-31T03:53:54.210Z,-6.44
2019-01-31T03:57:09.084Z,-6.50
2019-01-31T04:00:40.929Z,-6.61
2019-01-31T04:03:35.826Z,-6.66
2019-01-31T04:06:20.293Z,-6.62
2019-01-31T04:08:52.271Z,-6.64
2019-01-31T04:11:24.525Z,-6.62
2019-01-31T04:13:56.357Z,-6.66
2019-01-31T04:16:28.353Z,-6.69
2019-01-31T04:19:00.529Z,-6.62
2019-01-31T04:21:32.465Z,-6.61
2019-01-31T04:24:04.624Z,-6.67
2019-01-31T04:26:36.561Z,-6.62
2019-01-31T04:29:08.464Z,-6.68
2019-01-31T04:31:40.640Z,-6.71
2019-01-31T04:34:12.542Z,-6.73
2019-01-31T04:36:44.377Z,-6.75
2019-01-31T04:39:16.278Z,-6.79
2019-01-31T04:41:48.101Z,-6.74
2019-01-31T04:44:20.334Z,-6.76
2019-01-31T04:46:52.232Z,-6.79
2019-01-31T04:49:24.143Z,-6.77
2019-01-31T04:51:55.986Z,-6.71
2019-01-31T04:54:27.898Z,-6.79
2019-01-31T04:56:59.741Z,-6.83
2019-01-31T04:59:31.655Z,-6.83
2019-01-31T05:02:03.558Z,-6.94
2019-01-31T05:04:35.659Z,-6.85
2019-01-31T05:07:08.053Z,-6.74
2019-01-31T05:09:39.905Z,-6.68
2019-01-31T05:12:11.654Z,-6.62
2019-01-31T05:14:43.820Z,-6.53
2019-01-31T05:17:15.650Z,-6.56
2019-01-31T05:19:47.932Z,-6.52
2019-01-31T05:22:19.783Z,-6.48
2019-01-31T05:24:51.617Z,-6.34
2019-01-31T05:27:23.470Z,-6.06
2019-01-31T05:29:55.309Z,-6.26
2019-01-31T05:32:27.359Z,-6.28
2019-01-31T05:34:59.364Z,-6.27
2019-01-31T05:37:31.866Z,-6.27
2019-01-31T05:40:03.774Z,-6.30
2019-01-31T05:42:35.718Z,-6.30
2019-01-31T05:45:11.048Z,-6.34
2019-01-31T05:47:42.949Z,-6.39
2019-01-31T05:50:17.245Z,-6.33
2019-01-31T05:52:51.258Z,-6.34
2019-01-31T05:55:23.215Z,-6.33
2019-01-31T05:57:55.051Z,-6.34
2019-01-31T06:00:29.719Z,-6.40
2019-01-31T06:03:01.649Z,-6.37
2019-01-31T06:05:33.636Z,-6.44
2019-01-31T06:08:05.781Z,-6.42
2019-01-31T06:10:37.744Z,-6.47
2019-01-31T06:13:09.646Z,-6.44
2019-01-31T06:15:41.495Z,-6.35
2019-01-31T06:18:13.417Z,-6.30
2019-01-31T06:20:45.334Z,-6.22
2019-01-31T06:23:17.169Z,-6.24
2019-01-31T06:25:49.082Z,-6.23
2019-01-31T06:28:20.922Z,-6.37
2019-01-31T06:30:52.762Z,-6.58
2019-01-31T06:33:24.591Z,-6.56
2019-01-31T06:35:56.369Z,-6.44
2019-01-31T06:38:28.132Z,-6.38
2019-01-31T06:41:00.066Z,-6.32
2019-01-31T06:43:32.946Z,-6.43
2019-01-31T06:46:04.868Z,-6.34
2019-01-31T06:48:36.781Z,-6.30
2019-01-31T06:51:08.921Z,-6.22
2019-01-31T06:53:41.007Z,-6.06
2019-01-31T06:56:12.938Z,-5.87
2019-01-31T06:58:45.041Z,-5.93
2019-01-31T07:01:16.955Z,-5.77
2019-01-31T07:03:48.837Z,-5.81
2019-01-31T07:06:20.601Z,-5.58
2019-01-31T07:08:52.542Z,-5.33
2019-01-31T07:11:30.124Z,-5.24
2019-01-31T07:13:58.040Z,-5.09
2019-01-31T07:16:29.918Z,-5.05
2019-01-31T07:19:01.904Z,-4.95
2019-01-31T07:21:33.939Z,-5.04
2019-01-31T07:24:06.021Z,-5.29
2019-01-31T07:26:38.018Z,-5.10
2019-01-31T07:29:10.052Z,-5.13
2019-01-31T07:31:42.052Z,-4.97
2019-01-31T07:34:13.970Z,-5.07
2019-01-31T07:36:46.196Z,-5.09
2019-01-31T07:39:18.059Z,-5.04
2019-01-31T07:41:49.975Z,-5.05
2019-01-31T07:44:22.025Z,-4.99
2019-01-31T07:46:54.109Z,-4.93
2019-01-31T07:49:26.039Z,-4.86
2019-01-31T07:51:58.747Z,-4.71
2019-01-31T07:54:30.848Z,-4.72
2019-01-31T07:57:02.853Z,-4.68
2019-01-31T07:59:35.035Z,-4.63
2019-01-31T08:02:07.034Z,-4.51
2019-01-31T08:04:39.010Z,-4.41
2019-01-31T08:07:11.648Z,-4.35
2019-01-31T08:09:43.504Z,-4.33
2019-01-31T08:12:15.341Z,-4.30
2019-01-31T08:14:47.242Z,-4.23
2019-01-31T08:17:19.991Z,-4.19
2019-01-31T08:19:51.898Z,-4.14
2019-01-31T08:22:23.890Z,-4.01
2019-01-31T08:24:55.794Z,-3.93
2019-01-31T08:27:27.711Z,-3.82
2019-01-31T08:29:59.655Z,-3.72
2019-01-31T08:32:31.599Z,-3.70
2019-01-31T08:35:04.714Z,-3.66
2019-01-31T08:37:36.616Z,-3.59
2019-01-31T08:40:09.430Z,-3.50
2019-01-31T08:42:41.782Z,-3.39
2019-01-31T08:45:13.951Z,-3.16
2019-01-31T08:47:45.912Z,-3.10
2019-01-31T08:50:20.645Z,-3.04
2019-01-31T08:52:52.634Z,-3.19
2019-01-31T08:55:24.608Z,-3.28
2019-01-31T08:57:56.802Z,-3.39
2019-01-31T09:00:30.473Z,-3.41
2019-01-31T09:03:02.463Z,-3.43
2019-01-31T09:05:34.375Z,-3.40
2019-01-31T09:08:06.525Z,-3.36
2019-01-31T09:10:40.141Z,-3.28
2019-01-31T09:13:13.209Z,-3.22
2019-01-31T09:15:45.049Z,-3.16
2019-01-31T09:18:16.893Z,-3.10
2019-01-31T09:21:04.730Z,-3.02
2019-01-31T09:24:20.306Z,-2.93
2019-01-31T09:27:30.859Z,-2.77
2019-01-31T09:30:53.136Z,-2.56
2019-01-31T09:34:33.104Z,-2.36
2019-01-31T09:38:07.849Z,-2.18
2019-01-31T09:41:09.223Z,-2.16
2019-01-31T09:44:26.884Z,-2.12
2019-01-31T09:48:00.346Z,-1.95
2019-01-31T09:50:52.378Z,-1.81
2019-01-31T09:54:10.042Z,-1.56
2019-01-31T09:57:38.941Z,-1.44
2019-01-31T10:01:17.786Z,-1.27
2019-01-31T10:04:16.772Z,-1.22
2019-01-31T10:07:44.869Z,-1.18
2019-01-31T10:11:05.010Z,-1.15
2019-01-31T10:14:22.771Z,-1.06
2019-01-31T10:17:48.954Z,-1.00
2019-01-31T10:21:05.837Z,-0.91
2019-01-31T10:24:10.012Z,-0.86
2019-01-31T10:27:52.092Z,-0.81
2019-01-31T10:31:13.489Z,-0.79
2019-01-31T10:34:59.332Z,-0.75
2019-01-31T10:38:30.254Z,-0.79
2019-01-31T10:41:49.932Z,-0.78
2019-01-31T10:45:00.415Z,-0.84
2019-01-31T10:48:44.251Z,-0.88
2019-01-31T10:51:52.596Z,-0.78
2019-01-31T10:55:31.680Z,-0.81
2019-01-31T10:58:55.374Z,-0.78
2019-01-31T11:02:16.492Z,-0.78
2019-01-31T11:05:38.414Z,-0.71
2019-01-31T11:08:54.317Z,-0.59
2019-01-31T11:11:42.866Z,-0.46
2019-01-31T11:14:57.248Z,-0.26
2019-01-31T11:18:02.343Z,-0.22
2019-01-31T11:21:21.639Z,-0.15
2019-01-31T11:24:54.935Z,-0.07
2019-01-31T11:28:37.071Z,0.02
2019-01-31T11:31:40.118Z,-0.05
2019-01-31T11:35:30.151Z,-0.09
2019-01-31T11:38:54.446Z,-0.10
2019-01-31T11:41:42.309Z,0.12
2019-01-31T11:45:37.876Z,0.18
2019-01-31T11:49:18.436Z,0.32
2019-01-31T11:52:52.928Z,0.38
2019-01-31T11:56:45.048Z,0.47
2019-01-31T11:59:17.065Z,0.12
2019-01-31T12:01:48.951Z,-0.03
2019-01-31T12:04:20.922Z,-0.04
2019-01-31T12:06:52.920Z,-0.07
2019-01-31T12:09:24.933Z,-0.05
2019-01-31T12:11:56.839Z,0.00
2019-01-31T12:14:28.846Z,-0.01
2019-01-31T12:17:00.765Z,-0.03
2019-01-31T12:19:32.668Z,0.06
2019-01-31T12:22:04.659Z,-0.04
2019-01-31T12:24:36.906Z,-0.06
2019-01-31T12:27:08.922Z,0.16
2019-01-31T12:29:40.904Z,0.32
2019-01-31T12:32:12.937Z,0.35
2019-01-31T12:34:44.932Z,0.36
2019-01-31T12:37:16.851Z,0.32
2019-01-31T12:39:48.753Z,0.35
2019-01-31T12:42:21.729Z,0.24
2019-01-31T12:44:53.638Z,0.24
2019-01-31T12:47:25.745Z,0.24
2019-01-31T12:49:57.902Z,0.21
2019-01-31T12:52:29.820Z,0.17
2019-01-31T12:55:01.767Z,0.20
2019-01-31T12:57:34.748Z,0.23
2019-01-31T13:00:14.377Z,0.30
2019-01-31T13:02:46.299Z,0.34
2019-01-31T13:05:18.322Z,0.43
2019-01-31T13:07:50.241Z,0.45
2019-01-31T13:10:22.485Z,0.58
2019-01-31T13:12:55.981Z,0.63
2019-01-31T13:15:29.489Z,0.75
2019-01-31T13:18:01.543Z,0.93
2019-01-31T13:20:33.784Z,1.09
2019-01-31T13:23:05.909Z,1.41
2019-01-31T13:25:37.806Z,1.88
2019-01-31T13:28:11.935Z,2.27
2019-01-31T13:30:43.860Z,2.72
2019-01-31T13:33:15.774Z,2.95
2019-01-31T13:35:47.670Z,3.78
2019-01-31T13:38:19.580Z,3.83
2019-01-31T13:40:51.481Z,4.23
2019-01-31T13:43:23.394Z,4.62
2019-01-31T13:45:55.574Z,4.78
2019-01-31T13:48:27.490Z,4.74
2019-01-31T13:50:59.484Z,4.65
2019-01-31T13:53:31.466Z,4.86
2019-01-31T13:56:05.462Z,4.24
2019-01-31T13:58:37.448Z,4.78
2019-01-31T14:01:09.824Z,5.23
2019-01-31T14:03:41.837Z,4.52
2019-01-31T14:06:14.002Z,4.63
2019-01-31T14:08:45.921Z,4.33
2019-01-31T14:11:17.855Z,4.51
2019-01-31T14:13:49.856Z,4.63
2019-01-31T14:16:21.756Z,4.57
2019-01-31T14:18:53.597Z,5.25
2019-01-31T14:21:25.522Z,5.43
2019-01-31T14:23:57.722Z,5.46
2019-01-31T14:26:29.643Z,5.27
2019-01-31T14:29:01.552Z,5.12
2019-01-31T14:31:33.371Z,4.67
2019-01-31T14:34:05.688Z,4.58
2019-01-31T14:36:37.586Z,4.61
2019-01-31T14:39:10.901Z,4.39
2019-01-31T14:41:42.727Z,4.31
2019-01-31T14:44:20.511Z,4.21
2019-01-31T14:46:48.491Z,4.48
2019-01-31T14:49:20.398Z,4.60
2019-01-31T14:51:52.642Z,4.61
2019-01-31T14:54:24.474Z,5.00
2019-01-31T14:56:56.381Z,5.35
2019-01-31T14:59:28.226Z,5.46
2019-01-31T15:02:00.065Z,5.33
2019-01-31T15:04:31.980Z,4.93
2019-01-31T15:07:03.954Z,4.79
2019-01-31T15:09:36.155Z,4.36
2019-01-31T15:12:08.136Z,4.03
2019-01-31T15:14:40.303Z,3.65
2019-01-31T15:17:12.195Z,3.38
2019-01-31T15:19:44.119Z,3.26
2019-01-31T15:22:15.950Z,3.09
2019-01-31T15:24:47.861Z,2.94
2019-01-31T15:27:19.760Z,2.69
2019-01-31T15:29:51.671Z,2.66
2019-01-31T15:32:24.021Z,2.46
2019-01-31T15:34:55.867Z,2.33
2019-01-31T15:37:27.791Z,2.20
2019-01-31T15:39:59.724Z,2.08
2019-01-31T15:42:31.618Z,1.94
2019-01-31T15:45:03.545Z,1.87
2019-01-31T15:47:35.711Z,1.74
2019-01-31T15:50:09.700Z,1.56
2019-01-31T15:52:41.625Z,1.48
2019-01-31T15:55:16.238Z,1.42
2019-01-31T15:57:48.150Z,1.32
2019-01-31T16:00:36.673Z,1.28
2019-01-31T16:03:11.137Z,1.21
2019-01-31T16:05:43.414Z,1.13
2019-01-31T16:08:15.690Z,1.08
2019-01-31T16:10:48.065Z,1.00
2019-01-31T16:13:20.273Z,0.90
2019-01-31T16:15:52.759Z,0.74
2019-01-31T16:18:24.809Z,0.55
2019-01-31T16:20:56.934Z,0.46
2019-01-31T16:23:28.957Z,0.35
2019-01-31T16:26:01.326Z,0.39
2019-01-31T16:28:33.333Z,0.39
2019-01-31T16:31:05.959Z,0.30
2019-01-31T16:33:38.046Z,0.26
2019-01-31T16:36:10.494Z,0.11
2019-01-31T16:38:44.041Z,-0.04
2019-01-31T16:41:17.443Z,-0.10
2019-01-31T16:43:49.623Z,-0.28
2019-01-31T16:46:21.836Z,-0.37
2019-01-31T16:48:53.828Z,-0.45
2019-01-31T16:51:26.118Z,-0.53
2019-01-31T16:53:58.595Z,-0.68
2019-01-31T16:56:30.707Z,-0.78
2019-01-31T16:59:03.132Z,-0.89
2019-01-31T17:01:35.136Z,-0.94
2019-01-31T17:04:07.922Z,-1.05
2019-01-31T17:06:39.867Z,-1.05
2019-01-31T17:09:31.213Z,-1.14
2019-01-31T17:12:03.071Z,-1.20
2019-01-31T17:14:35.332Z,-1.14
2019-01-31T17:17:07.780Z,-1.23
2019-01-31T17:19:39.856Z,-1.25
2019-01-31T17:22:21.345Z,-1.24
2019-01-31T17:25:00.652Z,-1.23
2019-01-31T17:27:33.057Z,-1.24
2019-01-31T17:30:08.075Z,-1.27
2019-01-31T17:32:40.054Z,-1.35
2019-01-31T17:35:12.226Z,-1.44
2019-01-31T17:37:45.501Z,-1.40
2019-01-31T17:40:24.714Z,-1.44
2019-01-31T17:42:56.819Z,-1.49
2019-01-31T17:45:31.036Z,-1.58
2019-01-31T17:48:04.424Z,-1.68
2019-01-31T17:50:38.389Z,-1.76
2019-01-31T17:53:10.856Z,-1.76
2019-01-31T17:55:43.254Z,-1.79
2019-01-31T17:58:17.141Z,-1.83
2019-01-31T18:00:52.404Z,-1.89
2019-01-31T18:03:24.800Z,-1.92
2019-01-31T18:05:57.777Z,-1.99
2019-01-31T18:08:31.760Z,-1.92
2019-01-31T18:11:04.068Z,-1.64
2019-01-31T18:13:38.805Z,-1.66
2019-01-31T18:16:12.739Z,-1.52
2019-01-31T18:18:47.289Z,-1.19
2019-01-31T18:21:20.404Z,-1.00
2019-01-31T18:23:53.738Z,-1.00
2019-01-31T18:26:27.787Z,-0.91
2019-01-31T18:29:01.883Z,-0.94
2019-01-31T18:31:36.240Z,-0.75
2019-01-31T18:34:09.324Z,-0.80
2019-01-31T18:36:41.557Z,-1.07
2019-01-31T18:39:15.181Z,-1.15
2019-01-31T18:41:50.250Z,-1.06
2019-01-31T18:44:25.238Z,-1.27
2019-01-31T18:47:01.887Z,-1.15
2019-01-31T18:49:37.208Z,-1.08
2019-01-31T18:52:12.137Z,-1.03
2019-01-31T18:54:47.474Z,-1.00
2019-01-31T18:57:22.965Z,-1.02
2019-01-31T18:59:58.439Z,-1.04
2019-01-31T19:02:33.507Z,-1.13
2019-01-31T19:05:08.735Z,-0.94
2019-01-31T19:07:44.456Z,-0.89
2019-01-31T19:10:19.543Z,-0.79
2019-01-31T19:12:55.068Z,-0.83
2019-01-31T19:15:29.014Z,-0.98
2019-01-31T19:18:06.055Z,-1.11
2019-01-31T19:20:40.573Z,-1.19
2019-01-31T19:23:18.461Z,-1.10
2019-01-31T19:25:53.470Z,-0.96
2019-01-31T19:28:28.801Z,-0.96
2019-01-31T19:31:04.370Z,-1.01
2019-01-31T19:33:40.235Z,-1.29
2019-01-31T19:36:16.394Z,-1.33
2019-01-31T19:38:53.356Z,-1.21
2019-01-31T19:41:30.324Z,-1.36
2019-01-31T19:44:05.626Z,-1.30
2019-01-31T19:46:42.271Z,-1.40
2019-01-31T19:49:17.979Z,-1.27
2019-01-31T19:51:53.936Z,-1.26
2019-01-31T19:54:30.193Z,-1.36
2019-01-31T19:57:06.105Z,-1.11
2019-01-31T19:59:43.385Z,-1.08
2019-01-31T20:02:20.437Z,-1.13
2019-01-31T20:04:56.190Z,-1.09
2019-01-31T20:07:32.948Z,-1.03
2019-01-31T20:10:11.010Z,-1.03
2019-01-31T20:12:48.744Z,-1.06
2019-01-31T20:15:24.955Z,-1.12
2019-01-31T20:18:00.190Z,-1.13
2019-01-31T20:20:37.049Z,-1.07
2019-01-31T20:23:13.580Z,-1.05
2019-01-31T20:25:49.891Z,-1.01
2019-01-31T20:28:26.477Z,-1.06
2019-01-31T20:31:02.433Z,-1.05
2019-01-31T20:33:38.061Z,-1.02
2019-01-31T20:36:17.571Z,-1.03
2019-01-31T20:38:53.709Z,-1.05
2019-01-31T20:41:30.309Z,-0.98
2019-01-31T20:44:06.118Z,-0.89
2019-01-31T20:46:43.918Z,-0.86
2019-01-31T20:49:19.855Z,-0.87
2019-01-31T20:51:55.713Z,-0.90
2019-01-31T20:54:33.116Z,-0.94
2019-01-31T20:57:11.170Z,-0.88
2019-01-31T20:59:47.802Z,-0.88
2019-01-31T21:02:24.542Z,-0.81
2019-01-31T21:05:00.972Z,-0.84
2019-01-31T21:07:37.676Z,-0.81
2019-01-31T21:10:15.154Z,-0.80
2019-01-31T21:12:51.432Z,-0.82
2019-01-31T21:15:27.399Z,-0.75
2019-01-31T21:18:02.573Z,-0.92
2019-01-31T21:20:39.351Z,-0.91
2019-01-31T21:23:14.882Z,-0.80
2019-01-31T21:25:49.816Z,-0.84
2019-01-31T21:28:25.132Z,-0.72
2019-01-31T21:31:00.079Z,-0.69
2019-01-31T21:33:34.315Z,-0.79
2019-01-31T21:36:08.342Z,-0.76
2019-01-31T21:38:41.810Z,-0.73
2019-01-31T21:41:14.939Z,-0.67
2019-01-31T21:43:48.240Z,-0.76
2019-01-31T21:46:20.942Z,-0.83
2019-01-31T21:48:53.141Z,-0.84
2019-01-31T21:51:25.795Z,-0.86
2019-01-31T21:53:58.320Z,-0.66
2019-01-31T21:56:32.568Z,-0.72
2019-01-31T21:59:04.712Z,-0.62
2019-01-31T22:01:36.911Z,-0.70
2019-01-31T22:04:08.918Z,-0.64
2019-01-31T22:06:40.952Z,-0.70
2019-01-31T22:09:13.178Z,-0.65
2019-01-31T22:11:45.654Z,-0.70
2019-01-31T22:14:17.725Z,-0.63
2019-01-31T22:16:49.881Z,-0.63
2019-01-31T22:19:22.009Z,-0.59
2019-01-31T22:21:54.053Z,-0.60
2019-01-31T22:24:25.974Z,-0.59
2019-01-31T22:26:58.200Z,-0.57
2019-01-31T22:29:30.273Z,-0.59
2019-01-31T22:32:02.585Z,-0.59
2019-01-31T22:34:34.565Z,-0.55
2019-01-31T22:37:06.578Z,-0.56
2019-01-31T22:39:38.498Z,-0.53
2019-01-31T22:42:11.586Z,-0.50
2019-01-31T22:44:43.615Z,-0.49
2019-01-31T22:47:25.469Z,-0.50
2019-01-31T22:49:49.067Z,-0.49
2019-01-31T22:52:20.976Z,-0.44
2019-01-31T22:54:52.915Z,-0.46
2019-01-31T22:57:24.844Z,-0.51
2019-01-31T22:59:56.763Z,-0.42
2019-01-31T23:02:28.692Z,-0.46
2019-01-31T23:05:00.665Z,-0.41
2019-01-31T23:07:32.585Z,-0.37
2019-01-31T23:10:05.596Z,-0.35
2019-01-31T23:12:37.512Z,-0.34
2019-01-31T23:15:09.772Z,-0.27
2019-01-31T23:17:41.949Z,-0.25
2019-01-31T23:20:15.959Z,-0.21
2019-01-31T23:22:47.868Z,-0.24
2019-01-31T23:25:19.878Z,-0.26
2019-01-31T23:27:51.789Z,-0.28
2019-01-31T23:30:23.723Z,-0.26
2019-01-31T23:32:55.652Z,-0.31
2019-01-31T23:35:27.578Z,-0.30
2019-01-31T23:37:59.843Z,-0.30
2019-01-31T23:40:31.822Z,-0.26
2019-01-31T23:43:03.907Z,-0.25
2019-01-31T23:45:35.892Z,-0.22
2019-01-31T23:48:08.132Z,-0.22
2019-01-31T23:50:40.067Z,-0.31
2019-01-31T23:53:12.324Z,-0.25
2019-01-31T23:55:44.196Z,-0.28
2019-01-31T23:58:16.104Z,-0.28
